Dades meteomassalio
Diari Summary for Diciembre 08, 2017 Units:  Metric    English   Both
« Previous Day
Next Day »
Diari Semanal Mensual Anual Personalitzat
  Maxima: Minima: Mijana:
Temperatura: 14.4 °C -5.6 °C 4.8 °C
Rosada: 6.5 °C -7.5 °C 0.5 °C
Humitat: 88 % 58 % 75 %
Velocitat del vent: 38.9 km/h 0.0 km/h 13.9 km/h
Racha vent: 38.9 km/h - -
Vent:- - NW
Pressio: 1032.7 hPa 1026.6 hPa -
Pluja: 0.0 mm    
Historical Graphs
 
 
Tabular Data for Diciembre 08, 2017
Time Temperature Dew Point Pressure Wind Wind Speed Wind Gust Humidity Rainfall Rate (Hourly) solar Conditions
00:01 -4.4 °C -6.4 °C 1032.7 hPa Calm     86 % 0.0 mm 0.0 W/m2 CLR
00:06 -4.4 °C -6.4 °C 1032.7 hPa Calm     86 % 0.0 mm 0.0 W/m2 CLR
00:11 -4.4 °C -6.4 °C 1032.7 hPa Calm     86 % 0.0 mm 0.0 W/m2 CLR
00:16 -4.4 °C -6.4 °C 1032.7 hPa Calm     86 % 0.0 mm 0.0 W/m2 CLR
00:21 -4.4 °C -6.4 °C 1032.4 hPa Calm     86 % 0.0 mm 0.0 W/m2 CLR
00:26 -5.0 °C -7.0 °C 1032.4 hPa Calm     86 % 0.0 mm 0.0 W/m2 CLR
00:31 -5.0 °C -7.0 °C 1032.4 hPa Calm     86 % 0.0 mm 0.0 W/m2 CLR
00:41 -5.0 °C -7.0 °C 1032.4 hPa Calm     86 % 0.0 mm 0.0 W/m2 CLR
00:51 -5.0 °C -7.0 °C 1032.1 hPa Calm     86 % 0.0 mm 0.0 W/m2 CLR
01:01 -5.6 °C -7.4 °C 1032.1 hPa Calm     87 % 0.0 mm 0.0 W/m2 CLR
01:06 -5.6 °C -7.4 °C 1032.1 hPa WSW 4.8 km/h 4.8 km/h 87 % 0.0 mm 0.0 W/m2 CLR
01:11 -5.6 °C -7.4 °C 1032.1 hPa WSW 1.9 km/h   87 % 0.0 mm 0.0 W/m2 CLR
01:16 -5.0 °C -6.8 °C 1032.1 hPa Calm     87 % 0.0 mm 0.0 W/m2 CLR
01:26 -5.0 °C -6.8 °C 1032.1 hPa Calm     87 % 0.0 mm 0.0 W/m2 CLR
01:41 -5.6 °C -7.4 °C 1031.7 hPa Calm     87 % 0.0 mm 0.0 W/m2 CLR
01:51 -5.6 °C -7.4 °C 1031.7 hPa Calm     87 % 0.0 mm 0.0 W/m2 CLR
01:56 -5.6 °C -7.2 °C 1031.7 hPa Calm     88 % 0.0 mm 0.0 W/m2 CLR
02:11 -5.6 °C -7.4 °C 1031.7 hPa Calm     87 % 0.0 mm 0.0 W/m2 CLR
02:16 -5.6 °C -7.4 °C 1031.7 hPa Calm     87 % 0.0 mm 0.0 W/m2 CLR
02:26 -5.6 °C -7.4 °C 1031.7 hPa Calm     87 % 0.0 mm 0.0 W/m2 CLR
02:31 -5.6 °C -7.5 °C 1031.7 hPa Calm     86 % 0.0 mm 0.0 W/m2 CLR
02:36 -5.0 °C -7.0 °C 1031.7 hPa Calm     86 % 0.0 mm 0.0 W/m2 CLR
02:41 -5.0 °C -7.0 °C 1031.7 hPa Calm     86 % 0.0 mm 0.0 W/m2 CLR
02:46 -5.0 °C -7.0 °C 1031.7 hPa Calm     86 % 0.0 mm 0.0 W/m2 CLR
02:51 -5.0 °C -7.0 °C 1031.4 hPa Calm     86 % 0.0 mm 0.0 W/m2 CLR
03:01 -5.0 °C -6.8 °C 1031.4 hPa Calm     87 % 0.0 mm 0.0 W/m2 CLR
03:11 -4.4 °C -6.3 °C 1031.7 hPa Calm     87 % 0.0 mm 0.0 W/m2 CLR
03:21 -5.0 °C -6.8 °C 1031.7 hPa Calm     87 % 0.0 mm 0.0 W/m2 CLR
03:26 -5.0 °C -6.8 °C 1031.4 hPa Calm     87 % 0.0 mm 0.0 W/m2 CLR
03:31 -5.0 °C -6.7 °C 1031.4 hPa Calm     88 % 0.0 mm 0.0 W/m2 CLR
03:41 -4.4 °C -6.3 °C 1031.4 hPa Calm     87 % 0.0 mm 0.0 W/m2 CLR
04:01 -3.9 °C -5.7 °C 1031.0 hPa Calm     87 % 0.0 mm 0.0 W/m2 CLR
04:06 -3.3 °C -5.2 °C 1031.0 hPa Calm     87 % 0.0 mm 0.0 W/m2 CLR
04:14 -3.3 °C -5.2 °C 1031.0 hPa Calm     87 % 0.0 mm 0.0 W/m2 CLR
04:19 -3.3 °C -5.2 °C 1031.0 hPa Calm     87 % 0.0 mm 0.0 W/m2 CLR
04:21 -3.3 °C -5.2 °C 1031.0 hPa Calm     87 % 0.0 mm 0.0 W/m2 CLR
04:22 -3.3 °C -5.2 °C 1031.0 hPa Calm     87 % 0.0 mm 0.0 W/m2 CLR
04:26 -2.8 °C -4.8 °C 1030.7 hPa Calm     86 % 0.0 mm 0.0 W/m2 CLR
04:31 -2.8 °C -4.8 °C 1030.7 hPa Calm     86 % 0.0 mm 0.0 W/m2 CLR
04:37 -2.8 °C -4.8 °C 1030.7 hPa Calm     86 % 0.0 mm 0.0 W/m2 CLR
04:42 -2.8 °C -4.7 °C 1030.7 hPa Calm     87 % 0.0 mm 0.0 W/m2 CLR
04:47 -2.8 °C -4.8 °C 1030.7 hPa Calm     86 % 0.0 mm 0.0 W/m2 CLR
04:52 -2.8 °C -4.9 °C 1030.7 hPa Calm     85 % 0.0 mm 0.0 W/m2 CLR
04:57 -2.8 °C -4.9 °C 1030.4 hPa Calm     85 % 0.0 mm 0.0 W/m2 CLR
05:02 -3.3 °C -5.5 °C 1030.4 hPa Calm     85 % 0.0 mm 0.0 W/m2 CLR
05:12 -3.3 °C -5.5 °C 1030.4 hPa Calm     85 % 0.0 mm 0.0 W/m2 CLR
05:17 -3.3 °C -5.5 °C 1030.4 hPa Calm     85 % 0.0 mm 0.0 W/m2 CLR
05:22 -3.3 °C -5.5 °C 1030.0 hPa Calm     85 % 0.0 mm 0.0 W/m2 CLR
05:27 -3.3 °C -5.5 °C 1030.0 hPa Calm     85 % 0.0 mm 0.0 W/m2 CLR
05:32 -3.3 °C -5.3 °C 1030.0 hPa Calm   0.8 km/h 86 % 0.0 mm 0.0 W/m2 CLR
05:37 -2.8 °C -4.7 °C 1030.0 hPa West 3.7 km/h 3.7 km/h 87 % 0.0 mm 0.0 W/m2 CLR
05:42 -2.8 °C -4.8 °C 1030.0 hPa Calm     86 % 0.0 mm 0.0 W/m2 CLR
05:47 -2.8 °C -4.8 °C 1030.0 hPa Calm     86 % 0.0 mm 0.0 W/m2 CLR
05:52 -2.8 °C -4.8 °C 1030.0 hPa Calm     86 % 0.0 mm 0.0 W/m2 CLR
05:57 -2.8 °C -4.8 °C 1030.0 hPa Calm     86 % 0.0 mm 0.0 W/m2 CLR
06:02 -2.8 °C -4.8 °C 1029.7 hPa Calm     86 % 0.0 mm 0.0 W/m2 CLR
06:07 -2.8 °C -4.8 °C 1030.0 hPa Calm     86 % 0.0 mm 0.0 W/m2 CLR
06:17 -2.8 °C -4.7 °C 1029.7 hPa Calm     87 % 0.0 mm 0.0 W/m2 CLR
06:27 -2.2 °C -4.4 °C 1029.7 hPa Calm     85 % 0.0 mm 0.0 W/m2 CLR
06:32 -2.2 °C -4.4 °C 1029.7 hPa Calm     85 % 0.0 mm 0.0 W/m2 CLR
06:37 -2.2 °C -4.7 °C 1029.7 hPa Calm     83 % 0.0 mm 0.0 W/m2 CLR
06:39 -2.2 °C -4.7 °C 1029.7 hPa Calm     83 % 0.0 mm 0.0 W/m2 CLR
06:49 -2.2 °C -4.7 °C 1029.7 hPa Calm     83 % 0.0 mm 0.0 W/m2 CLR
06:54 -2.2 °C -4.9 °C 1029.7 hPa East 3.7 km/h 3.7 km/h 82 % 0.0 mm 0.0 W/m2 CLR
07:04 -1.7 °C -4.5 °C 1029.7 hPa Calm     81 % 0.0 mm 0.0 W/m2 CLR
07:09 -1.7 °C -4.7 °C 1029.7 hPa Calm     80 % 0.0 mm 0.0 W/m2 CLR
07:14 -1.7 °C -4.8 °C 1029.7 hPa Calm     79 % 0.0 mm 0.0 W/m2 CLR
07:19 -1.7 °C -5.0 °C 1029.7 hPa Calm     78 % 0.0 mm 0.0 W/m2 CLR
07:29 -1.7 °C -5.0 °C 1029.7 hPa Calm     78 % 0.0 mm 0.0 W/m2 CLR
07:39 -1.7 °C -5.0 °C 1029.7 hPa Calm     78 % 0.0 mm 0.0 W/m2 CLR
07:44 -1.1 °C -4.3 °C 1029.7 hPa Calm     79 % 0.0 mm 0.0 W/m2 CLR
07:49 -1.1 °C -4.3 °C 1029.7 hPa Calm     79 % 0.0 mm 0.0 W/m2 CLR
07:59 -1.7 °C -5.0 °C 1029.7 hPa Calm     78 % 0.0 mm 0.0 W/m2 CLR
08:14 -1.7 °C -4.8 °C 1029.7 hPa Calm     79 % 0.0 mm 0.0 W/m2 OVC
08:19 -1.7 °C -4.8 °C 1029.7 hPa Calm     79 % 0.0 mm 5.0 W/m2 OVC
08:29 -1.7 °C -4.7 °C 1029.7 hPa Calm     80 % 0.0 mm 14.0 W/m2 BKN
08:34 -1.7 °C -4.8 °C 1029.7 hPa Calm     79 % 0.0 mm 18.0 W/m2 BKN
08:39 -1.7 °C -4.8 °C 1029.7 hPa Calm     79 % 0.0 mm 23.0 W/m2 BKN
08:49 -1.7 °C -5.0 °C 1029.7 hPa Calm     78 % 0.0 mm 18.0 W/m2 BKN
08:54 -1.7 °C -5.0 °C 1029.7 hPa Calm     78 % 0.0 mm 19.0 W/m2 BKN
08:59 -1.1 °C -4.4 °C 1029.7 hPa Calm     78 % 0.0 mm 14.0 W/m2 BKN
09:04 -1.1 °C -4.3 °C 1029.7 hPa Calm     79 % 0.0 mm 16.0 W/m2 BKN
09:09 -1.1 °C -4.3 °C 1029.7 hPa Calm     79 % 0.0 mm 21.0 W/m2 BKN
09:14 -1.1 °C -4.1 °C 1029.7 hPa Calm     80 % 0.0 mm 18.0 W/m2 BKN
09:24 -1.7 °C -4.5 °C 1029.7 hPa Calm     81 % 0.0 mm 23.0 W/m2 BKN
09:29 -1.7 °C -4.5 °C 1029.7 hPa Calm     81 % 0.0 mm 26.0 W/m2 BKN
09:34 -1.7 °C -4.3 °C 1029.7 hPa Calm     82 % 0.0 mm 132.0 W/m2 SCT
09:39 -1.1 °C -3.8 °C 1029.7 hPa Calm     82 % 0.0 mm 130.0 W/m2 CLR
09:54 -0.6 °C -4.1 °C 1030.0 hPa Calm     77 % 0.0 mm 181.0 W/m2 CLR
10:04 0.6 °C -3.4 °C 1030.0 hPa Calm     75 % 0.0 mm 237.0 W/m2 CLR
10:14 2.2 °C -2.5 °C 1030.0 hPa Calm     71 % 0.0 mm 151.0 W/m2 CLR
10:19 2.8 °C -2.2 °C 1030.0 hPa WNW 5.6 km/h 5.6 km/h 70 % 0.0 mm 176.0 W/m2 CLR
10:24 3.3 °C -1.8 °C 1029.7 hPa NW 11.1 km/h 11.1 km/h 69 % 0.0 mm 192.0 W/m2 CLR
10:34 5.6 °C -0.7 °C 1029.7 hPa NW 5.6 km/h 5.6 km/h 64 % 0.0 mm 301.0 W/m2 CLR
10:54 9.4 °C 2.5 °C 1029.7 hPa NW 13.0 km/h 13.0 km/h 62 % 0.0 mm 264.0 W/m2 CLR
10:59 10.0 °C 3.1 °C 1029.7 hPa NW 20.4 km/h 20.4 km/h 62 % 0.0 mm 171.0 W/m2 CLR
11:19 10.6 °C 3.8 °C 1029.7 hPa NNW 18.5 km/h 18.5 km/h 63 % 0.0 mm 151.0 W/m2 CLR
11:39 11.1 °C 4.3 °C 1029.7 hPa North 19.3 km/h 19.3 km/h 63 % 0.0 mm 190.0 W/m2 CLR
11:44 11.1 °C 4.3 °C 1029.3 hPa NNW 24.1 km/h 24.1 km/h 63 % 0.0 mm 178.0 W/m2 CLR
11:49 11.1 °C 4.3 °C 1029.3 hPa North 18.5 km/h 18.5 km/h 63 % 0.0 mm 176.0 W/m2 CLR
11:59 11.1 °C 4.3 °C 1029.3 hPa NNW 19.3 km/h 19.3 km/h 63 % 0.0 mm 204.0 W/m2 CLR
12:04 11.1 °C 4.3 °C 1029.3 hPa NNW 16.7 km/h 16.7 km/h 63 % 0.0 mm 197.0 W/m2 CLR
12:14 11.7 °C 4.8 °C 1029.0 hPa North 13.0 km/h 13.0 km/h 63 % 0.0 mm 223.0 W/m2 CLR
12:24 11.7 °C 4.6 °C 1029.0 hPa NNW 27.4 km/h 27.4 km/h 62 % 0.0 mm 339.0 W/m2 CLR
12:29 12.2 °C 5.2 °C 1028.7 hPa NNW 29.6 km/h 29.6 km/h 62 % 0.0 mm 302.0 W/m2 CLR
12:39 12.2 °C 4.9 °C 1028.7 hPa NNE 19.3 km/h 19.3 km/h 61 % 0.0 mm 318.0 W/m2 CLR
12:44 12.2 °C 4.9 °C 1028.3 hPa North 16.7 km/h 16.7 km/h 61 % 0.0 mm 239.0 W/m2 CLR
12:49 11.7 °C 4.2 °C 1028.3 hPa NNW 14.8 km/h 14.8 km/h 60 % 0.0 mm 220.0 W/m2 CLR
12:54 11.7 °C 4.2 °C 1028.3 hPa NNW 18.5 km/h 18.5 km/h 60 % 0.0 mm 234.0 W/m2 CLR
13:05 11.7 °C 4.4 °C 1028.3 hPa NNW 24.1 km/h 24.1 km/h 61 % 0.0 mm 209.0 W/m2 CLR
13:10 11.7 °C 4.4 °C 1028.3 hPa NW 18.5 km/h 18.5 km/h 61 % 0.0 mm 195.0 W/m2 CLR
13:15 12.2 °C 5.2 °C 1028.0 hPa NW 20.9 km/h 20.9 km/h 62 % 0.0 mm 167.0 W/m2 CLR
13:20 12.2 °C 5.2 °C 1028.0 hPa NNW 25.9 km/h 25.9 km/h 62 % 0.0 mm 158.0 W/m2 CLR
13:25 12.2 °C 4.9 °C 1028.0 hPa North 22.2 km/h 22.2 km/h 61 % 0.0 mm 279.0 W/m2 CLR
13:30 12.8 °C 5.4 °C 1028.0 hPa NNW 22.5 km/h 22.5 km/h 61 % 0.0 mm 320.0 W/m2 CLR
13:40 13.3 °C 5.5 °C 1027.7 hPa NNW 22.5 km/h 22.5 km/h 59 % 0.0 mm 378.0 W/m2 CLR
13:45 13.9 °C 6.0 °C 1027.7 hPa NNW 25.7 km/h 25.7 km/h 59 % 0.0 mm 461.0 W/m2 CLR
13:50 13.9 °C 6.0 °C 1027.7 hPa NNW 25.7 km/h 25.7 km/h 59 % 0.0 mm 466.0 W/m2 CLR
13:55 13.9 °C 5.8 °C 1027.3 hPa NNW 27.8 km/h 27.8 km/h 58 % 0.0 mm 436.0 W/m2 CLR
14:00 14.4 °C 6.3 °C 1027.3 hPa NNW 24.1 km/h 24.1 km/h 58 % 0.0 mm 338.0 W/m2 CLR
14:15 13.9 °C 6.0 °C 1027.3 hPa North 19.3 km/h 19.3 km/h 59 % 0.0 mm 176.0 W/m2 CLR
14:25 13.3 °C 5.7 °C 1027.7 hPa NNW 35.2 km/h 35.2 km/h 60 % 0.0 mm 183.0 W/m2 CLR
14:30 13.3 °C 5.5 °C 1027.3 hPa NW 27.8 km/h 27.8 km/h 59 % 0.0 mm 172.0 W/m2 CLR
14:35 13.3 °C 5.5 °C 1027.3 hPa North 30.6 km/h 30.6 km/h 59 % 0.0 mm 127.0 W/m2 CLR
14:40 13.3 °C 5.7 °C 1027.3 hPa NNW 27.8 km/h 27.8 km/h 60 % 0.0 mm 127.0 W/m2 CLR
14:45 13.3 °C 5.9 °C 1027.3 hPa NNW 32.2 km/h 32.2 km/h 61 % 0.0 mm 104.0 W/m2 CLR
14:50 13.3 °C 5.9 °C 1027.3 hPa NNW 38.9 km/h 38.9 km/h 61 % 0.0 mm 130.0 W/m2 CLR
14:55 13.3 °C 5.9 °C 1027.3 hPa North 37.0 km/h 37.0 km/h 61 % 0.0 mm 153.0 W/m2 CLR
15:05 13.3 °C 5.9 °C 1027.0 hPa North 30.6 km/h 30.6 km/h 61 % 0.0 mm 118.0 W/m2 CLR
15:10 13.3 °C 5.9 °C 1027.0 hPa North 29.0 km/h 29.0 km/h 61 % 0.0 mm 113.0 W/m2 CLR
15:30 12.8 °C 5.7 °C 1027.0 hPa NNW 31.5 km/h 31.5 km/h 62 % 0.0 mm 113.0 W/m2 CLR
15:35 13.3 °C 6.2 °C 1026.6 hPa NNW 29.0 km/h 29.0 km/h 62 % 0.0 mm 306.0 W/m2 CLR
15:40 13.9 °C 6.5 °C 1026.6 hPa North 33.3 km/h 33.3 km/h 61 % 0.0 mm 309.0 W/m2 CLR
15:45 13.9 °C 6.2 °C 1026.6 hPa NNW 35.2 km/h 35.2 km/h 60 % 0.0 mm 318.0 W/m2 CLR
15:50 13.9 °C 6.2 °C 1026.6 hPa NNW 35.4 km/h 35.4 km/h 60 % 0.0 mm 304.0 W/m2 CLR
15:55 13.9 °C 6.2 °C 1026.6 hPa NW 24.1 km/h 24.1 km/h 60 % 0.0 mm 192.0 W/m2 CLR
16:00 13.9 °C 6.2 °C 1026.6 hPa North 31.5 km/h 31.5 km/h 60 % 0.0 mm 153.0 W/m2 CLR
16:15 13.3 °C 5.9 °C 1026.6 hPa NW 29.6 km/h 29.6 km/h 61 % 0.0 mm 60.0 W/m2 CLR
16:20 13.3 °C 5.9 °C 1026.6 hPa NNW 33.3 km/h 33.3 km/h 61 % 0.0 mm 58.0 W/m2 FEW
16:25 12.8 °C 5.7 °C 1026.6 hPa North 31.5 km/h 31.5 km/h 62 % 0.0 mm 86.0 W/m2 SCT
16:30 12.8 °C 5.7 °C 1026.6 hPa NW 24.1 km/h 24.1 km/h 62 % 0.0 mm 114.0 W/m2 FEW
16:35 12.8 °C 5.4 °C 1026.6 hPa NNW 29.6 km/h 29.6 km/h 61 % 0.0 mm 109.0 W/m2 CLR
16:40 12.8 °C 5.4 °C 1026.6 hPa NW 22.2 km/h 22.2 km/h 61 % 0.0 mm 109.0 W/m2 CLR
16:45 12.8 °C 5.7 °C 1026.6 hPa NNW 29.6 km/h 29.6 km/h 62 % 0.0 mm 91.0 W/m2 CLR
17:00 12.8 °C 5.9 °C 1027.0 hPa NW 31.5 km/h 31.5 km/h 63 % 0.0 mm 39.0 W/m2 SCT
17:10 12.8 °C 6.1 °C 1027.0 hPa North 31.5 km/h 31.5 km/h 64 % 0.0 mm 23.0 W/m2 BKN
17:15 12.2 °C 5.6 °C 1027.0 hPa NNW 31.5 km/h 31.5 km/h 64 % 0.0 mm 18.0 W/m2 BKN
17:20 12.2 °C 5.6 °C 1027.0 hPa NW 24.1 km/h 24.1 km/h 64 % 0.0 mm 11.0 W/m2 BKN
17:25 12.2 °C 5.6 °C 1027.0 hPa NW 29.6 km/h 29.6 km/h 64 % 0.0 mm 7.0 W/m2 BKN
17:30 12.2 °C 5.8 °C 1027.0 hPa NNW 25.9 km/h 25.9 km/h 65 % 0.0 mm 5.0 W/m2 OVC
17:35 12.2 °C 5.8 °C 1027.0 hPa NW 25.7 km/h 25.7 km/h 65 % 0.0 mm 0.0 W/m2 OVC
17:40 12.2 °C 5.8 °C 1027.0 hPa NW 24.1 km/h 24.1 km/h 65 % 0.0 mm 0.0 W/m2 OVC
17:45 11.7 °C 5.3 °C 1027.0 hPa NW 22.2 km/h 22.2 km/h 65 % 0.0 mm 0.0 W/m2 CLR
17:50 11.7 °C 5.3 °C 1027.0 hPa NW 31.5 km/h 31.5 km/h 65 % 0.0 mm 0.0 W/m2 CLR
17:55 11.7 °C 5.3 °C 1027.3 hPa North 25.9 km/h 25.9 km/h 65 % 0.0 mm 0.0 W/m2 CLR
18:10 11.7 °C 5.5 °C 1027.0 hPa NW 20.4 km/h 20.4 km/h 66 % 0.0 mm 0.0 W/m2 CLR
18:20 11.1 °C 5.2 °C 1027.0 hPa North 27.8 km/h 27.8 km/h 67 % 0.0 mm 0.0 W/m2 CLR
18:25 11.1 °C 5.4 °C 1027.0 hPa North 31.5 km/h 31.5 km/h 68 % 0.0 mm 0.0 W/m2 CLR
18:30 11.1 °C 5.6 °C 1027.0 hPa NNW 31.5 km/h 31.5 km/h 69 % 0.0 mm 0.0 W/m2 CLR
18:40 11.1 °C 5.6 °C 1027.0 hPa NNW 25.9 km/h 25.9 km/h 69 % 0.0 mm 0.0 W/m2 CLR
18:45 11.1 °C 5.8 °C 1027.0 hPa North 29.6 km/h 29.6 km/h 70 % 0.0 mm 0.0 W/m2 CLR
18:50 11.1 °C 5.8 °C 1027.0 hPa NNE 19.3 km/h 19.3 km/h 70 % 0.0 mm 0.0 W/m2 CLR
18:55 11.1 °C 5.8 °C 1027.0 hPa North 16.7 km/h 16.7 km/h 70 % 0.0 mm 0.0 W/m2 CLR
19:00 11.1 °C 5.8 °C 1027.0 hPa North 31.5 km/h 31.5 km/h 70 % 0.0 mm 0.0 W/m2 CLR
19:05 11.1 °C 5.8 °C 1027.0 hPa NNW 32.2 km/h 32.2 km/h 70 % 0.0 mm 0.0 W/m2 CLR
19:10 11.1 °C 5.8 °C 1027.3 hPa NNW 38.6 km/h 38.6 km/h 70 % 0.0 mm 0.0 W/m2 CLR
19:15 11.1 °C 5.8 °C 1027.0 hPa NW 25.9 km/h 25.9 km/h 70 % 0.0 mm 0.0 W/m2 CLR
19:20 11.1 °C 5.8 °C 1027.0 hPa NW 18.5 km/h 18.5 km/h 70 % 0.0 mm 0.0 W/m2 CLR
19:25 10.6 °C 5.3 °C 1027.0 hPa NNW 27.4 km/h 27.4 km/h 70 % 0.0 mm 0.0 W/m2 CLR
19:45 10.6 °C 5.7 °C 1027.3 hPa North 38.9 km/h 38.9 km/h 72 % 0.0 mm 0.0 W/m2 CLR
20:00 10.6 °C 5.7 °C 1027.3 hPa NNW 30.6 km/h 30.6 km/h 72 % 0.0 mm 0.0 W/m2 CLR
20:05 10.6 °C 5.7 °C 1027.3 hPa NNW 31.5 km/h 31.5 km/h 72 % 0.0 mm 0.0 W/m2 CLR
20:10 10.0 °C 5.2 °C 1027.3 hPa North 20.9 km/h 20.9 km/h 72 % 0.0 mm 0.0 W/m2 CLR
20:15 10.0 °C 5.4 °C 1027.3 hPa North 27.8 km/h 27.8 km/h 73 % 0.0 mm 0.0 W/m2 CLR
20:20 10.0 °C 5.4 °C 1027.3 hPa North 27.4 km/h 27.4 km/h 73 % 0.0 mm 0.0 W/m2 CLR
20:30 9.4 °C 5.1 °C 1027.3 hPa NNW 29.6 km/h 29.6 km/h 74 % 0.0 mm 0.0 W/m2 CLR
20:35 9.4 °C 5.1 °C 1027.0 hPa NNW 27.8 km/h 27.8 km/h 74 % 0.0 mm 0.0 W/m2 CLR
20:40 9.4 °C 5.1 °C 1027.0 hPa NW 19.3 km/h 19.3 km/h 74 % 0.0 mm 0.0 W/m2 CLR
20:45 9.4 °C 5.2 °C 1027.0 hPa NNW 25.9 km/h 25.9 km/h 75 % 0.0 mm 0.0 W/m2 CLR
20:50 9.4 °C 5.2 °C 1027.0 hPa NW 27.8 km/h 27.8 km/h 75 % 0.0 mm 0.0 W/m2 CLR
20:55 9.4 °C 5.2 °C 1027.0 hPa NNW 27.8 km/h 27.8 km/h 75 % 0.0 mm 0.0 W/m2 CLR
21:00 9.4 °C 5.4 °C 1027.0 hPa North 22.5 km/h 22.5 km/h 76 % 0.0 mm 0.0 W/m2 CLR
21:10 9.4 °C 5.4 °C 1027.0 hPa NNW 20.4 km/h 20.4 km/h 76 % 0.0 mm 0.0 W/m2 CLR
21:15 9.4 °C 5.4 °C 1027.3 hPa NW 18.5 km/h 18.5 km/h 76 % 0.0 mm 0.0 W/m2 CLR
21:20 9.4 °C 5.6 °C 1027.0 hPa NW 27.8 km/h 27.8 km/h 77 % 0.0 mm 0.0 W/m2 CLR
21:25 9.4 °C 5.6 °C 1027.0 hPa NNW 25.7 km/h 25.7 km/h 77 % 0.0 mm 0.0 W/m2 CLR
21:30 9.4 °C 5.6 °C 1027.0 hPa NW 25.9 km/h 25.9 km/h 77 % 0.0 mm 0.0 W/m2 CLR
21:35 8.9 °C 5.1 °C 1027.0 hPa North 24.1 km/h 24.1 km/h 77 % 0.0 mm 0.0 W/m2 CLR
21:40 8.9 °C 5.1 °C 1027.0 hPa NNW 20.4 km/h 20.4 km/h 77 % 0.0 mm 0.0 W/m2 CLR
21:45 8.9 °C 5.1 °C 1027.0 hPa NNW 18.5 km/h 18.5 km/h 77 % 0.0 mm 0.0 W/m2 CLR
21:50 8.9 °C 5.3 °C 1027.0 hPa NW 18.5 km/h 18.5 km/h 78 % 0.0 mm 0.0 W/m2 CLR
21:55 8.9 °C 5.3 °C 1027.3 hPa NNW 22.2 km/h 22.2 km/h 78 % 0.0 mm 0.0 W/m2 CLR
22:05 8.9 °C 5.3 °C 1027.3 hPa North 20.4 km/h 20.4 km/h 78 % 0.0 mm 0.0 W/m2 CLR
22:10 8.9 °C 5.3 °C 1027.3 hPa North 25.9 km/h 25.9 km/h 78 % 0.0 mm 0.0 W/m2 CLR
22:15 8.9 °C 5.1 °C 1027.3 hPa NNW 24.1 km/h 24.1 km/h 77 % 0.0 mm 0.0 W/m2 CLR
22:20 8.3 °C 4.7 °C 1027.3 hPa North 29.6 km/h 29.6 km/h 78 % 0.0 mm 0.0 W/m2 CLR
22:25 8.3 °C 4.6 °C 1027.3 hPa WNW 16.7 km/h 16.7 km/h 77 % 0.0 mm 0.0 W/m2 CLR
22:30 8.3 °C 4.6 °C 1027.3 hPa NNW 18.5 km/h 18.5 km/h 77 % 0.0 mm 0.0 W/m2 CLR
22:35 8.3 °C 4.7 °C 1027.3 hPa NW 18.5 km/h 18.5 km/h 78 % 0.0 mm 0.0 W/m2 CLR
22:40 8.3 °C 4.6 °C 1027.3 hPa North 13.0 km/h 13.0 km/h 77 % 0.0 mm 0.0 W/m2 CLR
22:46 8.3 °C 4.6 °C 1027.3 hPa NW 22.2 km/h 22.2 km/h 77 % 0.0 mm 0.0 W/m2 CLR
22:56 8.3 °C 4.7 °C 1027.3 hPa WNW 11.1 km/h 11.1 km/h 78 % 0.0 mm 0.0 W/m2 CLR
22:57 7.8 °C 4.2 °C 1027.3 hPa NW 5.6 km/h   78 % 0.0 mm 0.0 W/m2 CLR
23:02 7.8 °C 4.2 °C 1027.3 hPa WNW 13.0 km/h 13.0 km/h 78 % 0.0 mm 0.0 W/m2 CLR
23:07 7.8 °C 4.2 °C 1027.0 hPa NNW 14.5 km/h 14.5 km/h 78 % 0.0 mm 0.0 W/m2 CLR
23:12 7.8 °C 4.0 °C 1027.0 hPa NW 12.9 km/h 12.9 km/h 77 % 0.0 mm 0.0 W/m2 CLR
23:22 7.8 °C 3.8 °C 1027.0 hPa NNW 29.0 km/h 29.0 km/h 76 % 0.0 mm 0.0 W/m2 CLR
23:32 7.8 °C 3.6 °C 1027.0 hPa NW 22.2 km/h 22.2 km/h 75 % 0.0 mm 0.0 W/m2 CLR
23:42 7.8 °C 3.6 °C 1027.3 hPa NW 24.1 km/h 24.1 km/h 75 % 0.0 mm 0.0 W/m2 CLR
23:47 7.8 °C 3.4 °C 1027.3 hPa West 17.7 km/h 17.7 km/h 74 % 0.0 mm 0.0 W/m2 CLR
23:52 7.8 °C 3.6 °C 1027.3 hPa NW 16.7 km/h 16.7 km/h 75 % 0.0 mm 0.0 W/m2 CLR
23:57 7.8 °C 3.6 °C 1027.3 hPa North 22.2 km/h 22.2 km/h 75 % 0.0 mm 0.0 W/m2 CLR
Lo Temps de Massalio
Compliments of Weather Underground - 1 mb